Terminal Aerodrome Forecast
Issued by NWS

Home | Current Version | Previous Version | Text Only | Print | Product List | Glossary On
Versions: 1 2 3 4 5 6 7 8 9 10 11 12 13 14
000
FTUS44 KBMX 310500
TAFANB
TAF
KANB 310520Z 3106/0106 00000KT P6SM BKN200
     FM311000 VRB02KT 5SM BR BKN015
     FM311400 22006KT P6SM SCT250
     FM010100 00000KT P6SM FEW250=

USA.gov is the U.S. government's official web portal to all federal, state and local government web resources and services.